createdAt,value
2023-04-16T00:00:39.148Z,7.60
2023-04-16T00:05:40.853Z,7.70
2023-04-16T00:10:44.051Z,7.70
2023-04-16T00:15:45.742Z,7.60
2023-04-16T00:20:47.910Z,7.60
2023-04-16T00:25:51.147Z,7.70
2023-04-16T00:30:52.959Z,7.70
2023-04-16T00:35:54.720Z,7.70
2023-04-16T00:40:57.737Z,7.70
2023-04-16T00:45:59.558Z,7.70
2023-04-16T00:51:01.406Z,7.70
2023-04-16T00:56:06.871Z,7.70
2023-04-16T01:01:08.789Z,7.70
2023-04-16T01:06:11.178Z,7.70
2023-04-16T01:11:14.831Z,7.70
2023-04-16T01:16:16.627Z,7.70
2023-04-16T01:21:19.740Z,7.60
2023-04-16T01:26:21.475Z,7.70
2023-04-16T01:31:23.179Z,7.60
2023-04-16T01:36:26.192Z,7.70
2023-04-16T01:41:27.838Z,7.70
2023-04-16T01:46:32.254Z,7.70
2023-04-16T01:51:35.260Z,7.70
2023-04-16T01:56:36.898Z,7.60
2023-04-16T02:01:38.780Z,7.70
2023-04-16T02:06:41.743Z,7.70
2023-04-16T02:11:43.406Z,7.70
2023-04-16T02:16:45.200Z,7.70
2023-04-16T02:21:48.351Z,7.70
2023-04-16T02:26:50.044Z,7.80
2023-04-16T02:31:51.724Z,7.80
2023-04-16T02:36:54.932Z,7.80
2023-04-16T02:41:56.639Z,7.90
2023-04-16T02:46:58.256Z,7.90
2023-04-16T02:52:01.331Z,7.80
2023-04-16T02:57:03.129Z,7.80
2023-04-16T03:02:04.909Z,7.80
2023-04-16T03:07:08.032Z,7.80
2023-04-16T03:12:09.685Z,7.70
2023-04-16T03:17:11.381Z,7.80
2023-04-16T03:22:14.504Z,7.80
2023-04-16T03:27:16.170Z,7.80
2023-04-16T03:32:18.336Z,7.80
2023-04-16T03:37:21.450Z,7.80
2023-04-16T03:42:23.156Z,7.80
2023-04-16T03:47:24.902Z,7.70
2023-04-16T03:52:27.938Z,7.70
2023-04-16T03:57:29.613Z,7.70
2023-04-16T04:02:31.375Z,7.70
2023-04-16T04:07:34.484Z,7.70
2023-04-16T04:12:36.152Z,7.70
2023-04-16T04:17:37.937Z,7.70
2023-04-16T04:22:41.040Z,7.70
2023-04-16T04:27:43.020Z,7.80
2023-04-16T04:32:44.754Z,7.80
2023-04-16T04:37:48.000Z,7.70
2023-04-16T04:42:49.657Z,7.70
2023-04-16T04:47:51.789Z,7.70
2023-04-16T04:52:54.780Z,7.70
2023-04-16T04:57:56.422Z,7.70
2023-04-16T05:02:58.202Z,7.70
2023-04-16T05:08:01.273Z,7.80
2023-04-16T05:13:03.053Z,7.80
2023-04-16T05:18:04.805Z,7.80
2023-04-16T05:23:07.936Z,7.90
2023-04-16T05:28:10.048Z,7.90
2023-04-16T05:33:11.732Z,7.90
2023-04-16T05:38:14.829Z,7.80
2023-04-16T05:43:16.609Z,7.90
2023-04-16T05:48:18.266Z,7.90
2023-04-16T05:53:21.812Z,8.00
2023-04-16T05:58:23.587Z,8.00
2023-04-16T06:03:25.369Z,8.00
2023-04-16T06:08:28.526Z,8.00
2023-04-16T06:13:30.243Z,8.10
2023-04-16T06:18:34.414Z,8.10
2023-04-16T06:23:37.589Z,8.30
2023-04-16T06:28:39.248Z,8.30
2023-04-16T06:33:40.936Z,8.40
2023-04-16T06:38:44.156Z,8.50
2023-04-16T06:43:45.980Z,8.60
2023-04-16T06:48:47.641Z,8.60
2023-04-16T06:53:50.676Z,8.60
2023-04-16T06:58:52.353Z,8.40
2023-04-16T07:03:54.461Z,8.20
2023-04-16T07:08:57.856Z,8.10
2023-04-16T07:13:59.583Z,8.00
2023-04-16T07:19:01.276Z,7.90
2023-04-16T07:24:04.659Z,7.90
2023-04-16T07:29:06.424Z,7.90
2023-04-16T07:34:08.110Z,7.90
2023-04-16T07:39:11.301Z,7.90
2023-04-16T07:44:13.186Z,7.90
2023-04-16T07:49:15.176Z,7.90
2023-04-16T07:54:18.265Z,7.90
2023-04-16T07:59:23.913Z,8.00
2023-04-16T08:04:26.574Z,8.10
2023-04-16T08:09:32.429Z,8.00
2023-04-16T08:14:34.321Z,7.90
2023-04-16T08:19:36.026Z,7.90
2023-04-16T08:24:39.170Z,8.00
2023-04-16T08:29:40.831Z,7.90
2023-04-16T08:34:42.966Z,8.00
2023-04-16T08:39:46.036Z,8.20
2023-04-16T08:44:49.486Z,8.20
2023-04-16T08:49:58.332Z,8.20
2023-04-16T08:55:05.482Z,8.20
2023-04-16T09:00:08.572Z,8.20
2023-04-16T09:05:13.055Z,8.30
2023-04-16T09:10:16.638Z,8.40
2023-04-16T09:15:20.807Z,8.50
2023-04-16T09:20:22.645Z,8.50
2023-04-16T09:25:25.807Z,8.50
2023-04-16T09:30:28.158Z,8.60
2023-04-16T09:35:45.472Z,8.70
2023-04-16T09:41:05.298Z,8.70
2023-04-16T09:46:08.183Z,8.70
2023-04-16T09:51:10.243Z,8.70
2023-04-16T09:56:26.332Z,8.70
2023-04-16T10:01:30.376Z,8.80
2023-04-16T10:06:32.082Z,8.90
2023-04-16T10:11:35.168Z,8.90
2023-04-16T10:16:37.149Z,9.00
2023-04-16T10:21:39.557Z,9.00
2023-04-16T10:26:43.897Z,9.10
2023-04-16T10:31:46.747Z,9.10
2023-04-16T10:36:50.123Z,9.20
2023-04-16T10:42:07.744Z,9.20
2023-04-16T10:47:13.526Z,9.20
2023-04-16T10:52:16.407Z,9.20
2023-04-16T10:57:20.334Z,9.30
2023-04-16T11:02:28.909Z,9.30
2023-04-16T11:07:33.710Z,9.30
2023-04-16T11:12:38.979Z,9.30
2023-04-16T11:17:43.472Z,9.40
2023-04-16T11:22:45.420Z,9.30
2023-04-16T11:27:48.678Z,9.40
2023-04-16T11:32:50.509Z,9.40
2023-04-16T11:37:56.740Z,9.40
2023-04-16T11:43:04.072Z,9.30
2023-04-16T11:48:06.321Z,9.40
2023-04-16T11:53:08.125Z,9.40
2023-04-16T11:58:13.941Z,9.50
2023-04-16T12:03:16.491Z,9.60
2023-04-16T12:08:29.240Z,9.50
2023-04-16T12:13:32.355Z,9.80
2023-04-16T12:18:34.046Z,10.10
2023-04-16T12:23:35.759Z,10.20
2023-04-16T12:28:38.882Z,10.20
2023-04-16T12:33:40.583Z,10.30
2023-04-16T12:38:42.296Z,10.30
2023-04-16T12:43:45.478Z,10.30
2023-04-16T12:48:47.309Z,10.20
2023-04-16T12:53:49.325Z,10.00
2023-04-16T12:58:52.640Z,10.00
2023-04-16T13:03:54.520Z,10.00
2023-04-16T13:08:56.406Z,10.00
2023-04-16T13:13:59.559Z,10.00
2023-04-16T13:19:01.370Z,10.00
2023-04-16T13:24:03.314Z,10.00
2023-04-16T13:29:06.489Z,10.10
2023-04-16T13:34:08.250Z,10.40
2023-04-16T13:39:10.112Z,10.60
2023-04-16T13:44:13.504Z,11.00
2023-04-16T13:49:15.422Z,11.30
2023-04-16T13:54:17.072Z,11.50
2023-04-16T13:59:20.173Z,11.70
2023-04-16T14:04:21.859Z,11.70
2023-04-16T14:09:23.589Z,11.70
2023-04-16T14:14:26.622Z,11.50
2023-04-16T14:19:28.469Z,11.30
2023-04-16T14:24:30.152Z,11.40
2023-04-16T14:29:33.330Z,11.40
2023-04-16T14:34:35.100Z,11.10
2023-04-16T14:39:36.962Z,10.80
2023-04-16T14:44:40.140Z,10.50
2023-04-16T14:49:41.991Z,10.30
2023-04-16T14:54:43.832Z,10.30
2023-04-16T14:59:46.938Z,10.40
2023-04-16T15:04:48.815Z,10.60
2023-04-16T15:09:51.056Z,10.70
2023-04-16T15:14:54.177Z,10.70
2023-04-16T15:19:55.894Z,10.70
2023-04-16T15:24:57.616Z,11.00
2023-04-16T15:30:00.845Z,11.40
2023-04-16T15:35:02.777Z,11.70
2023-04-16T15:40:05.443Z,11.80
2023-04-16T15:45:09.192Z,12.00
2023-04-16T15:50:11.010Z,11.90
2023-04-16T15:55:12.967Z,12.10
2023-04-16T16:00:16.411Z,12.20
2023-04-16T16:05:18.178Z,12.20
2023-04-16T16:10:20.049Z,12.30
2023-04-16T16:15:23.187Z,12.10
2023-04-16T16:20:25.342Z,11.80
2023-04-16T16:25:27.010Z,11.30
2023-04-16T16:30:30.086Z,11.00
2023-04-16T16:35:31.759Z,10.80
2023-04-16T16:40:33.457Z,10.80
2023-04-16T16:45:36.534Z,10.70
2023-04-16T16:50:38.309Z,10.90
2023-04-16T16:55:39.985Z,10.70
2023-04-16T17:00:43.076Z,10.70
2023-04-16T17:05:44.823Z,10.70
2023-04-16T17:10:46.559Z,10.80
2023-04-16T17:15:49.595Z,10.70
2023-04-16T17:20:51.642Z,10.70
2023-04-16T17:25:53.438Z,10.60
2023-04-16T17:30:56.402Z,10.50
2023-04-16T17:35:58.082Z,10.40
2023-04-16T17:40:59.996Z,10.40
2023-04-16T17:46:25.859Z,10.30
2023-04-16T17:51:27.694Z,10.20
2023-04-16T17:56:29.415Z,10.40
2023-04-16T18:01:32.638Z,10.50
2023-04-16T18:06:34.419Z,10.40
2023-04-16T18:11:36.170Z,10.50
2023-04-16T18:16:39.310Z,10.30
2023-04-16T18:21:41.242Z,10.30
2023-04-16T18:26:46.252Z,10.40
2023-04-16T18:31:50.361Z,10.30
2023-04-16T18:36:52.312Z,10.10
2023-04-16T18:41:54.063Z,10.10
2023-04-16T18:46:57.308Z,9.90
2023-04-16T18:51:59.065Z,9.60
2023-04-16T18:57:01.019Z,9.60
2023-04-16T19:02:04.336Z,9.50
2023-04-16T19:07:06.101Z,9.40
2023-04-16T19:12:07.870Z,9.40
2023-04-16T19:17:11.301Z,9.10
2023-04-16T19:22:15.273Z,9.00
2023-04-16T19:27:17.046Z,8.90
2023-04-16T19:32:20.209Z,8.90
2023-04-16T19:37:21.988Z,8.90
2023-04-16T19:42:23.779Z,8.80
2023-04-16T19:47:26.889Z,8.70
2023-04-16T19:52:28.600Z,8.70
2023-04-16T19:57:30.269Z,8.60
2023-04-16T20:02:33.366Z,8.70
2023-04-16T20:07:35.162Z,8.90
2023-04-16T20:12:36.848Z,8.70
2023-04-16T20:17:39.914Z,8.60
2023-04-16T20:22:42.196Z,8.50
2023-04-16T20:27:43.843Z,8.50
2023-04-16T20:32:46.905Z,8.50
2023-04-16T20:37:48.531Z,8.50
2023-04-16T20:42:50.507Z,8.40
2023-04-16T20:47:53.560Z,8.40
2023-04-16T20:52:55.367Z,8.40
2023-04-16T20:57:57.086Z,8.40
2023-04-16T21:03:00.324Z,8.40
2023-04-16T21:08:02.077Z,8.30
2023-04-16T21:13:03.758Z,8.30
2023-04-16T21:18:07.222Z,8.40
2023-04-16T21:23:08.954Z,8.40
2023-04-16T21:28:10.609Z,8.50
2023-04-16T21:33:13.627Z,8.40
2023-04-16T21:38:15.413Z,8.40
2023-04-16T21:43:17.318Z,8.40
2023-04-16T21:48:20.657Z,8.40
2023-04-16T21:53:22.437Z,8.40
2023-04-16T21:58:24.268Z,8.40
2023-04-16T22:03:27.449Z,8.40
2023-04-16T22:08:29.594Z,8.40
2023-04-16T22:13:31.611Z,8.40
2023-04-16T22:18:34.631Z,8.40
2023-04-16T22:23:36.313Z,8.40
2023-04-16T22:28:38.429Z,8.50
2023-04-16T22:33:43.638Z,8.40
2023-04-16T22:38:45.287Z,8.40
2023-04-16T22:43:47.028Z,8.40
2023-04-16T22:48:50.070Z,8.40
2023-04-16T22:53:51.928Z,8.30
2023-04-16T22:58:53.594Z,8.30
2023-04-16T23:03:56.701Z,8.30
2023-04-16T23:08:58.366Z,8.30
2023-04-16T23:14:00.060Z,8.30
2023-04-16T23:19:03.091Z,8.20
2023-04-16T23:24:05.082Z,8.20
2023-04-16T23:29:06.733Z,8.10
2023-04-16T23:34:09.898Z,8.10
2023-04-16T23:39:12.197Z,8.10
2023-04-16T23:44:14.088Z,8.10
2023-04-16T23:49:17.221Z,8.10
2023-04-16T23:54:18.974Z,8.00
2023-04-16T23:59:20.628Z,8.20
